sensor_id;sensor_type;location;lat;lon;timestamp;pressure;altitude;pressure_sealevel;temperature;humidity
71642;BME280;60657;50.122;14.468;2022-10-26T00:01:05;98593.30580527654;;;12.243839169909208;82.07507438773175
71642;BME280;60657;50.122;14.468;2022-10-26T00:04:09;98597.49467770543;;;12.166399633783477;82.2295719844358
71642;BME280;60657;50.122;14.468;2022-10-26T00:07:12;98596.71127679147;;;12.019531548027771;82.56527046616311
71642;BME280;60657;50.122;14.468;2022-10-26T00:10:14;98595.90370462686;;;11.97947661554894;83.04402227817197
71642;BME280;60657;50.122;14.468;2022-10-26T00:13:16;98606.7464570975;;;11.904707408255128;83.20805676356146
71642;BME280;60657;50.122;14.468;2022-10-26T00:16:20;98610.07417914533;;;11.899366750591284;83.23857480735485
71642;BME280;60657;50.122;14.468;2022-10-26T00:19:24;98614.25612235081;;;11.760509651331347;83.55329213397421
71642;BME280;60657;50.122;14.468;2022-10-26T00:22:27;98614.2859802428;;;11.576256961928742;84.27046616311894
71642;BME280;60657;50.122;14.468;2022-10-26T00:25:28;98607.62800759402;;;11.594949263752191;84.0701915007248
71642;BME280;60657;50.122;14.468;2022-10-26T00:28:31;98607.62088927848;;;11.712443732356753;83.69443808651866
71642;BME280;60657;50.122;14.468;2022-10-26T00:31:33;98612.61268828264;;;11.680399786373691;83.68680857557031
71642;BME280;60657;50.122;14.468;2022-10-26T00:34:35;98608.45916860036;;;11.66437781338216;83.58762493324178
71642;BME280;60657;50.122;14.468;2022-10-26T00:37:37;98626.77028875782;;;11.546883344777598;84.03204394598306
71642;BME280;60657;50.122;14.468;2022-10-26T00:40:39;98617.62552583826;;;11.50148775463493;84.29526207370108
71642;BME280;60657;50.122;14.468;2022-10-26T00:43:41;98611.80950586642;;;11.383993286030368;84.81788357366293
71642;BME280;60657;50.122;14.468;2022-10-26T00:46:43;98614.30250224272;;;11.509498741130692;84.36392767223622
71642;BME280;60657;50.122;14.468;2022-10-26T00:49:46;98623.44729944666;;;11.506828412298773;84.2323186083772
71642;BME280;60657;50.122;14.468;2022-10-26T00:52:51;98625.10884756078;;;11.496147096971086;84.09880216678111
71642;BME280;60657;50.122;14.468;2022-10-26T00:55:55;98617.63064531343;;;11.432059205004961;84.16746776531625
71642;BME280;60657;50.122;14.468;2022-10-26T00:58:59;98615.96791944392;;;11.424048218509192;84.28572518501564
71642;BME280;60657;50.122;14.468;2022-10-26T01:02:06;98611.8111702468;;;11.400015259021899;84.32387273975738
71642;BME280;60657;50.122;14.468;2022-10-26T01:05:08;98610.14918242062;;;11.370641641870755;84.33340962844282
71642;BME280;60657;50.122;14.468;2022-10-26T01:08:14;98617.63209334805;;;11.341268024719618;84.39826047150378
71642;BME280;60657;50.122;14.468;2022-10-26T01:11:18;98617.63396153251;;;11.333257038223849;84.25902189669642
71642;BME280;60657;50.122;14.468;2022-10-26T01:14:20;98620.12882379074;;;11.290531776913099;84.61760891126879
71642;BME280;60657;50.122;14.468;2022-10-26T01:17:28;98610.14978242894;;;11.34927901121538;84.16556038757916
71642;BME280;60657;50.122;14.468;2022-10-26T01:20:51;98601.00085786401;;;11.397344930189973;83.92904554818035
71642;BME280;60657;50.122;14.468;2022-10-26T01:24:20;98599.33510680616;;;11.453421835660336;83.70778973067826
71642;BME280;60657;50.122;14.468;2022-10-26T01:27:42;98596.00634215525;;;11.40802624551766;83.50370031280995
71642;BME280;60657;50.122;14.468;2022-10-26T01:30:49;98600.1685982796;;;11.381322957198442;83.78599221789884
71642;BME280;60657;50.122;14.468;2022-10-26T01:33:55;98599.33510680616;;;11.413366903181505;83.53803311207751
71642;BME280;60657;50.122;14.468;2022-10-26T01:37:04;98600.16632987685;;;11.472114137483786;83.47699702449073
71642;BME280;60657;50.122;14.468;2022-10-26T01:40:15;98598.49989645714;;;11.49347676813916;83.2462043183032
71642;BME280;60657;50.122;14.468;2022-10-26T01:43:25;98595.16508586731;;;11.538872358281836;83.07835507743954
71642;BME280;60657;50.122;14.468;2022-10-26T01:46:33;98591.83665786986;;;11.533531700617992;82.90478370336461
71642;BME280;60657;50.122;14.468;2022-10-26T01:49:41;98586.84813513125;;;11.53620202944991;82.80750743877317
71642;BME280;60657;50.122;14.468;2022-10-26T01:52:48;98594.325569056;;;11.60296025024796;82.59960326543069
71642;BME280;60657;50.122;14.468;2022-10-26T01:55:51;98590.9890286465;;;11.613641565575648;82.1418326085298
71642;BME280;60657;50.122;14.468;2022-10-26T01:58:57;98584.33834524502;;;11.613641565575648;82.40886549172198
71642;BME280;60657;50.122;14.468;2022-10-26T02:02:24;98583.50185801179;;;11.632333867399097;82.18760967421989
71642;BME280;60657;50.122;14.468;2022-10-26T02:05:45;98586.02297859734;;;11.522850385290305;82.49279011215381
71642;BME280;60657;50.122;14.468;2022-10-26T02:09:06;98581.86578956978;;;11.461432822156098;82.67589837491417
71642;BME280;60657;50.122;14.468;2022-10-26T02:12:20;98583.53480088603;;;11.437399862668805;83.01731898985275
71642;BME280;60657;50.122;14.468;2022-10-26T02:15:34;98587.69837666982;;;11.354619668879224;83.07454032196536
71642;BME280;60657;50.122;14.468;2022-10-26T02:18:47;98590.19566120148;;;11.30655374990463;83.31677729457542
71642;BME280;60657;50.122;14.468;2022-10-26T02:22:01;98583.54605222624;;;11.301213092240786;83.29388876173037
71642;BME280;60657;50.122;14.468;2022-10-26T02:25:15;98581.88028669148;;;11.301213092240786;83.3358510719463
71642;BME280;60657;50.122;14.468;2022-10-26T02:28:23;98573.55885697187;;;11.362630655374993;83.13366903181506
71642;BME280;60657;50.122;14.468;2022-10-26T02:31:32;98578.55360417436;;;11.295872434576943;83.27862973983368
71642;BME280;60657;50.122;14.468;2022-10-26T02:34:36;98572.72617554672;;;11.397344930189973;82.99443045700771
71642;BME280;60657;50.122;14.468;2022-10-26T02:37:42;98581.03830578938;;;11.375982299534598;82.95437552452887
71642;BME280;60657;50.122;14.468;2022-10-26T02:40:49;98584.37473702608;;;11.327916380560005;83.23666742961777
71642;BME280;60657;50.122;14.468;2022-10-26T02:43:53;98581.88487413338;;;11.22110322728313;83.57999542229344
71642;BME280;60657;50.122;14.468;2022-10-26T02:47:03;98586.8730738296;;;11.2291142137789;83.4369420920119
71642;BME280;60657;50.122;14.468;2022-10-26T02:50:06;98573.56701395162;;;11.293202105745024;83.19279774166476
71642;BME280;60657;50.122;14.468;2022-10-26T02:53:09;98581.04914595619;;;11.295872434576943;83.0554665445945
71642;BME280;60657;50.122;14.468;2022-10-26T02:56:25;98585.20590175202;;;11.3145647364004;82.9219501029984
71642;BME280;60657;50.122;14.468;2022-10-26T02:59:34;98574.39570851496;;;11.346608682383462;82.81132219424735
71642;BME280;60657;50.122;14.468;2022-10-26T03:02:42;98583.54032917545;;;11.346608682383462;82.70832379644465
71642;BME280;60657;50.122;14.468;2022-10-26T03:05:52;98571.89161766578;;;11.375982299534598;82.29442282749676
71642;BME280;60657;50.122;14.468;2022-10-26T03:08:54;98573.55170578932;;;11.400015259021899;82.17998016327154
71642;BME280;60657;50.122;14.468;2022-10-26T03:11:56;98569.39276850062;;;11.413366903181505;81.83283741512169
71642;BME280;60657;50.122;14.468;2022-10-26T03:14:58;98578.55111957573;;;11.346608682383462;81.57915617608911
71642;BME280;60657;50.122;14.468;2022-10-26T03:18:00;98571.89161766578;;;11.370641641870755;82.15518425268941
71642;BME280;60657;50.122;14.468;2022-10-26T03:21:03;98576.03836900211;;;11.418707560845348;82.22575722896163
71642;BME280;60657;50.122;14.468;2022-10-26T03:24:05;98574.37641439545;;;11.466773479819942;82.06363012130923
71642;BME280;60657;50.122;14.468;2022-10-26T03:27:07;98570.22373054226;;;11.509498741130692;81.76989394979782
71642;BME280;60657;50.122;14.468;2022-10-26T03:30:10;98564.41771998354;;;11.383993286030368;81.69550621805142
71642;BME280;60657;50.122;14.468;2022-10-26T03:33:12;98561.93470536171;;;11.2050812542916;81.95872434576944
71642;BME280;60657;50.122;14.468;2022-10-26T03:36:14;98571.07265103527;;;11.354619668879224;82.00259403372245
71642;BME280;60657;50.122;14.468;2022-10-26T03:39:16;98573.56807371693;;;11.456092164492254;82.00640878919661
71642;BME280;60657;50.122;14.468;2022-10-26T03:42:18;98572.73479230654;;;11.413366903181505;82.00068665598535
71642;BME280;60657;50.122;14.468;2022-10-26T03:45:21;98585.1999718837;;;11.34927901121538;82.38597695887694
71642;BME280;60657;50.122;14.468;2022-10-26T03:48:23;98594.3538454898;;;11.191729610131993;82.91432059205005
71642;BME280;60657;50.122;14.468;2022-10-26T03:51:25;98594.35385661214;;;11.068894483863588;82.86472877088579
71642;BME280;60657;50.122;14.468;2022-10-26T03:54:27;98584.38008480356;;;11.140993362325474;83.08598458838789
71642;BME280;60657;50.122;14.468;2022-10-26T03:57:29;98589.36680212662;;;11.149004348821244;83.11078049897002
71642;BME280;60657;50.122;14.468;2022-10-26T04:00:31;98590.19805238734;;;11.170366979476618;83.12031738765545
71642;BME280;60657;50.122;14.468;2022-10-26T04:03:35;98601.837195706;;;11.181048294804306;82.63393606469825
71642;BME280;60657;50.122;14.468;2022-10-26T04:06:37;98587.70477069776;;;11.146334019989318;82.37834744792859
71642;BME280;60657;50.122;14.468;2022-10-26T04:09:39;98589.35377659867;;;10.876630807965206;82.62249179827573
71642;BME280;60657;50.122;14.468;2022-10-26T04:12:41;98603.49286135215;;;10.99145494773785;83.59525444419013
71642;BME280;60657;50.122;14.468;2022-10-26T04:15:43;98592.68812905833;;;10.9246967269398;83.75165941863126
71642;BME280;60657;50.122;14.468;2022-10-26T04:18:45;98606.81375563162;;;10.927367055771725;83.64866102082857
71642;BME280;60657;50.122;14.468;2022-10-26T04:21:48;98606.80153298411;;;10.900663767452507;83.73830777447165
71642;BME280;60657;50.122;14.468;2022-10-26T04:24:52;98614.27759374476;;;10.836575875486382;83.54757000076295
71642;BME280;60657;50.122;14.468;2022-10-26T04:27:54;98614.26768450011;;;10.825894560158694;83.76882581826504
71642;BME280;60657;50.122;14.468;2022-10-26T04:30:56;98610.10361946144;;;10.636301213092239;84.14839398794537
71642;BME280;60657;50.122;14.468;2022-10-26T04:33:58;98614.23338788765;;;10.57488364995804;84.03776607919433
71642;BME280;60657;50.122;14.468;2022-10-26T04:37:00;98624.16291596464;;;10.500114442664227;84.04730296787976
71642;BME280;60657;50.122;14.468;2022-10-26T04:40:03;98628.28891036258;;;10.371938658731978;84.24567025253681
71642;BME280;60657;50.122;14.468;2022-10-26T04:43:05;98620.77342047563;;;10.243762874799728;84.32959487296864
71642;BME280;60657;50.122;14.468;2022-10-26T04:46:07;98624.09030350279;;;10.281147478446634;84.12169069962616
71642;BME280;60657;50.122;14.468;2022-10-26T04:49:10;98619.10930358144;;;10.246433203631646;84.1750972762646
71642;BME280;60657;50.122;14.468;2022-10-26T04:52:12;98617.4217844869;;;10.134279392690928;84.32387273975738
71642;BME280;60657;50.122;14.468;2022-10-26T04:55:14;98618.23543810434;;;10.19035629816129;84.20752269779507
71642;BME280;60657;50.122;14.468;2022-10-26T04:58:17;98619.89967168501;;;10.198367284657053;84.09880216678111
71642;BME280;60657;50.122;14.468;2022-10-26T05:01:19;98617.44520182544;;;10.25177386129549;83.8641947051194
71642;BME280;60657;50.122;14.468;2022-10-26T05:04:21;98619.0675530004;;;10.12359807736324;84.11978332188907
71642;BME280;60657;50.122;14.468;2022-10-26T05:07:23;98624.0603219309;;;10.195696955825134;83.80125123979553
71642;BME280;60657;50.122;14.468;2022-10-26T05:10:26;98623.26395983888;;;10.283817807278552;83.5094224460212
71642;BME280;60657;50.122;14.468;2022-10-26T05:13:28;98625.75450134004;;;10.254444190127415;83.5246814679179
71642;BME280;60657;50.122;14.468;2022-10-26T05:16:30;98621.63261679432;;;10.331883726253146;83.20805676356146
71642;BME280;60657;50.122;14.468;2022-10-26T05:19:32;98620.78998216282;;;10.297169451438165;82.87426565957122
71642;BME280;60657;50.122;14.468;2022-10-26T05:22:34;98621.52497194454;;;10.120927748531322;83.25383382925155
71642;BME280;60657;50.122;14.468;2022-10-26T05:25:37;98624.06648863763;;;10.21705958648051;83.15274280918594
71642;BME280;60657;50.122;14.468;2022-10-26T05:28:39;98615.00673753243;;;10.366598001068134;82.64728770885786
71642;BME280;60657;50.122;14.468;2022-10-26T05:31:42;98623.3355032128;;;10.476081483176927;82.30968184939346
71642;BME280;60657;50.122;14.468;2022-10-26T05:34:44;98612.55857667026;;;10.53215838864729;82.1113145647364
71642;BME280;60657;50.122;14.468;2022-10-26T05:37:46;98633.32363378198;;;10.558861676966508;81.61730373083086
71642;BME280;60657;50.122;14.468;2022-10-26T05:40:48;98637.47043916953;;;10.500114442664227;81.88624399176013
71642;BME280;60657;50.122;14.468;2022-10-26T05:43:51;98629.15930115839;;;10.478751812008852;82.58815899900816
71642;BME280;60657;50.122;14.468;2022-10-26T05:46:53;98630.8095941752;;;10.494773785000383;82.63393606469825
71642;BME280;60657;50.122;14.468;2022-10-26T05:49:56;98634.13300286868;;;10.476081483176927;82.87045090409704
71642;BME280;60657;50.122;14.468;2022-10-26T05:52:58;98638.2250325804;;;10.42267490653849;82.69878690775921
71642;BME280;60657;50.122;14.468;2022-10-26T05:56:00;98634.13300286868;;;10.54818036163882;82.65300984206912
71642;BME280;60657;50.122;14.468;2022-10-26T05:59:03;98646.62310666802;;;10.556191348134583;82.70641641870756
71642;BME280;60657;50.122;14.468;2022-10-26T06:02:13;98653.27098228123;;;10.486762798504614;82.8170443274586
71642;BME280;60657;50.122;14.468;2022-10-26T06:05:36;98657.45305471841;;;10.700389105058363;82.26199740596628
71642;BME280;60657;50.122;14.468;2022-10-26T06:08:48;98649.1694518409;;;10.809872587167163;81.8461890592813
71642;BME280;60657;50.122;14.468;2022-10-26T06:11:51;98648.34701199752;;;10.865949492637519;81.52765697718776
71642;BME280;60657;50.122;14.468;2022-10-26T06:14:54;98650.83664941209;;;10.900663767452507;81.70504310673685
71642;BME280;60657;50.122;14.468;2022-10-26T06:17:58;98651.69137345122;;;10.962081330586706;80.96307316701
71642;BME280;60657;50.122;14.468;2022-10-26T06:21:16;98653.30062637696;;;10.841916533150226;81.95109483482109
71642;BME280;60657;50.122;14.468;2022-10-26T06:24:32;98647.53680583515;;;11.007476920729381;81.23201342793926
71642;BME280;60657;50.122;14.468;2022-10-26T06:27:48;98645.86281538104;;;11.0341802090486;81.12138551918822
71642;BME280;60657;50.122;14.468;2022-10-26T06:31:02;98652.51262866099;;;11.114290074006256;80.65789272907607
71642;BME280;60657;50.122;14.468;2022-10-26T06:34:04;98653.35999156622;;;11.159685664148931;80.60257877470055
71642;BME280;60657;50.122;14.468;2022-10-26T06:37:07;98652.53037538208;;;11.17837796597238;81.00885023270008
71642;BME280;60657;50.122;14.468;2022-10-26T06:40:11;98656.71109901536;;;11.317235065232317;81.61921110856794
71642;BME280;60657;50.122;14.468;2022-10-26T06:43:19;98665.85994945832;;;11.413366903181505;81.41130693522545
71642;BME280;60657;50.122;14.468;2022-10-26T06:46:28;98661.69419276169;;;11.237125200274662;80.66361486228733
71642;BME280;60657;50.122;14.468;2022-10-26T06:49:40;98673.259769444;;;10.954070344090944;82.10177767605097
71642;BME280;60657;50.122;14.468;2022-10-26T06:52:58;98669.11057848696;;;10.951400015259019;81.6974135957885
71642;BME280;60657;50.122;14.468;2022-10-26T06:56:15;98673.26370443954;;;10.96742198825055;81.88624399176013
71642;BME280;60657;50.122;14.468;2022-10-26T06:59:21;98659.17104390817;;;11.098268101014725;81.46471351186389
71642;BME280;60657;50.122;14.468;2022-10-26T07:02:33;98671.68385465784;;;11.389333943694211;80.5053025101091
71642;BME280;60657;50.122;14.468;2022-10-26T07:05:35;98675.84316885662;;;11.400015259021899;80.90966659037156
71642;BME280;60657;50.122;14.468;2022-10-26T07:08:38;98675.84614972667;;;11.618982223239492;79.79575799191272
71642;BME280;60657;50.122;14.468;2022-10-26T07:11:40;98669.98897874498;;;11.952773327229721;78.71808957045853
71642;BME280;60657;50.122;14.468;2022-10-26T07:14:42;98669.05420111715;;;12.372014953841457;77.66521705958648
71642;BME280;60657;50.122;14.468;2022-10-26T07:17:47;98657.26443092982;;;12.721828030823225;76.3796444647898
71642;BME280;60657;50.122;14.468;2022-10-26T07:20:50;98658.76862961058;;;13.007553215838868;75.72541390096895
71642;BME280;60657;50.122;14.468;2022-10-26T07:23:53;98662.83022595709;;;13.175783932249942;74.7164110780499
71642;BME280;60657;50.122;14.468;2022-10-26T07:26:55;98666.09328126164;;;13.346684977492941;74.32539864194705
71642;BME280;60657;50.122;14.468;2022-10-26T07:30:03;98665.00512290694;;;13.640421149004347;73.18860151064317
71642;BME280;60657;50.122;14.468;2022-10-26T07:33:07;98668.8529292258;;;14.083695735103383;72.17578393224994
71642;BME280;60657;50.122;14.468;2022-10-26T07:36:10;98673.59469582776;;;14.417486839093613;70.83680476081483
71642;BME280;60657;50.122;14.468;2022-10-26T07:39:13;98674.97557491573;;;14.794003204394599;69.29182879377431
71642;BME280;60657;50.122;14.468;2022-10-26T07:42:15;98684.86541155227;;;14.676508735790037;69.61608300907912
71642;BME280;60657;50.122;14.468;2022-10-26T07:45:18;98670.11239800672;;;15.103761348897535;67.9967193102922
71642;BME280;60657;50.122;14.468;2022-10-26T07:48:20;98679.72767686627;;;15.589761196307315;66.61959258411535
71642;BME280;60657;50.122;14.468;2022-10-26T07:51:22;98680.28747647899;;;15.643167772945752;65.58579385061418
71642;BME280;60657;50.122;14.468;2022-10-26T07:54:24;98679.96372755106;;;15.368123903257803;67.39780270084688
71642;BME280;60657;50.122;14.468;2022-10-26T07:57:27;98681.13751598509;;;15.101091020065617;68.15503166247044
71642;BME280;60657;50.122;14.468;2022-10-26T08:00:30;98687.33759339343;;;14.794003204394599;68.93133440146487
71642;BME280;60657;50.122;14.468;2022-10-26T08:03:33;98683.98220214399;;;14.759288929579611;69.31662470435646
71642;BME280;60657;50.122;14.468;2022-10-26T08:06:35;98689.96689320864;;;14.625772487983518;69.96322575722895
71642;BME280;60657;50.122;14.468;2022-10-26T08:09:38;98697.73229408257;;;14.460212100404362;70.31418326085299
71642;BME280;60657;50.122;14.468;2022-10-26T08:12:40;98705.51486829045;;;14.206530861371789;71.1362630655375
71642;BME280;60657;50.122;14.468;2022-10-26T08:15:43;98699.46979733395;;;14.278629739833676;70.99130235751888
71642;BME280;60657;50.122;14.468;2022-10-26T08:18:46;98702.28763855681;;;13.966201266498814;71.82291905088884
71642;BME280;60657;50.122;14.468;2022-10-26T08:21:48;98703.92205345038;;;14.032959487296864;71.79240100709545
71642;BME280;60657;50.122;14.468;2022-10-26T08:24:50;98702.12279426343;;;14.174486915388727;71.519645990692
71642;BME280;60657;50.122;14.468;2022-10-26T08:27:59;98698.12184084476;;;14.030289158464946;72.50385290302891
71642;BME280;60657;50.122;14.468;2022-10-26T08:31:02;98705.63610653995;;;14.07835507743954;71.99649042496375
71642;BME280;60657;50.122;14.468;2022-10-26T08:34:05;98714.98407614295;;;13.83268482490272;73.26298924238957
71642;BME280;60657;50.122;14.468;2022-10-26T08:37:07;98716.73666233332;;;13.781948577096209;73.60822461280232
71642;BME280;60657;50.122;14.468;2022-10-26T08:40:10;98714.04450095048;;;13.891432059205002;73.52048523689632
71642;BME280;60657;50.122;14.468;2022-10-26T08:43:18;98714.16497806604;;;13.843366140230408;73.49950408178836
71642;BME280;60657;50.122;14.468;2022-10-26T08:46:29;98710.6195275221;;;13.976882581826501;72.83192187380789
71642;BME280;60657;50.122;14.468;2022-10-26T08:49:39;98710.85348731851;;;13.763256275272752;74.13847562371252
71642;BME280;60657;50.122;14.468;2022-10-26T08:52:50;98710.01120605589;;;13.880750743877314;73.14473182269016
71642;BME280;60657;50.122;14.468;2022-10-26T08:55:59;98699.21182661795;;;13.803311207751584;74.10795757991913
71642;BME280;60657;50.122;14.468;2022-10-26T08:59:13;98699.1415851089;;;13.931486991683833;73.54146639200427
71642;BME280;60657;50.122;14.468;2022-10-26T09:02:27;98712.30683466146;;;14.142442969405664;73.02265964751659
71642;BME280;60657;50.122;14.468;2022-10-26T09:05:31;98713.11128722469;;;14.166475928892957;73.21721217669948
71642;BME280;60657;50.122;14.468;2022-10-26T09:08:52;98712.18648417297;;;14.246585793850613;73.03410391393912
71642;BME280;60657;50.122;14.468;2022-10-26T09:12:05;98722.03924658686;;;14.390783550774394;72.47905699244679
71642;BME280;60657;50.122;14.468;2022-10-26T09:15:18;98714.44631369994;;;14.542992294193944;72.1223773556115
71642;BME280;60657;50.122;14.468;2022-10-26T09:18:35;98716.06110417175;;;14.593728542000456;72.0498970016022
71642;BME280;60657;50.122;14.468;2022-10-26T09:21:51;98720.08614051461;;;14.745937285420005;71.48531319142442
71642;BME280;60657;50.122;14.468;2022-10-26T09:25:10;98717.46307843782;;;14.844739452201111;71.71610589761197
71642;BME280;60657;50.122;14.468;2022-10-26T09:28:19;98711.4792620501;;;14.954222934309911;71.37468528267338
71642;BME280;60657;50.122;14.468;2022-10-26T09:31:24;98724.90112277717;;;14.916838330663005;71.45860990310521
71642;BME280;60657;50.122;14.468;2022-10-26T09:34:28;98724.68933755308;;;15.093080033569848;70.76432440680553
71642;BME280;60657;50.122;14.468;2022-10-26T09:37:38;98720.94887839622;;;15.44022278171969;70.29701686121919
71642;BME280;60657;50.122;14.468;2022-10-26T09:40:49;98723.99998294051;;;15.699244678416115;68.62043183031967
71642;BME280;60657;50.122;14.468;2022-10-26T09:44:00;98727.03540449125;;;15.89951934081025;68.56893263141832
71642;BME280;60657;50.122;14.468;2022-10-26T09:47:20;98722.65921483937;;;15.846112764171814;68.72915236133363
71642;BME280;60657;50.122;14.468;2022-10-26T09:50:34;98726.02384639574;;;15.888838025482563;68.50408178835737
71642;BME280;60657;50.122;14.468;2022-10-26T09:53:40;98724.52397592457;;;15.872816052491032;68.58419165331502
71642;BME280;60657;50.122;14.468;2022-10-26T09:56:43;98726.89946016762;;;15.952925917448688;68.08827344167238
71642;BME280;60657;50.122;14.468;2022-10-26T09:59:50;98729.63548260632;;;15.757991912718396;68.61089494163424
71642;BME280;60657;50.122;14.468;2022-10-26T10:02:54;98721.33829555886;;;15.656519417105365;69.41008621347372
71642;BME280;60657;50.122;14.468;2022-10-26T10:06:13;98732.27667950031;;;15.648508430609596;69.56267643244068
71642;BME280;60657;50.122;14.468;2022-10-26T10:09:18;98726.57366638338;;;15.485618371862365;69.74006256198977
71642;BME280;60657;50.122;14.468;2022-10-26T10:12:22;98718.43913835452;;;15.325398641947054;70.53353170061798
71642;BME280;60657;50.122;14.468;2022-10-26T10:15:26;98718.33750556756;;;15.27733272297246;70.94743266956588
71642;BME280;60657;50.122;14.468;2022-10-26T10:18:28;98721.02838039452;;;15.237277790493629;71.37850003814755
71642;BME280;60657;50.122;14.468;2022-10-26T10:21:33;98715.96956061527;;;15.325398641947054;71.35942626077669
71642;BME280;60657;50.122;14.468;2022-10-26T10:24:39;98714.2696946549;;;15.290684367132066;71.17059586480507
71642;BME280;60657;50.122;14.468;2022-10-26T10:27:43;98712.48765813251;;;15.400167849240866;71.3289082169833
71642;BME280;60657;50.122;14.468;2022-10-26T10:30:55;98715.70228434775;;;15.445563439383534;71.26024261844816
71642;BME280;60657;50.122;14.468;2022-10-26T10:33:58;98712.52878863805;;;15.370794232089722;71.48722056916152
71642;BME280;60657;50.122;14.468;2022-10-26T10:37:01;98715.8068273277;;;15.402838178072784;70.9436179140917
71642;BME280;60657;50.122;14.468;2022-10-26T10:40:05;98719.00011228168;;;15.541695277332721;71.14198519874876
71642;BME280;60657;50.122;14.468;2022-10-26T10:43:14;98716.446794978;;;15.544365606164646;71.20111390859846
71642;BME280;60657;50.122;14.468;2022-10-26T10:46:21;98716.18268494222;;;15.643167772945752;71.29648279545282
71642;BME280;60657;50.122;14.468;2022-10-26T10:49:27;98713.1279540603;;;15.498970016021971;71.94117647058823
71642;BME280;60657;50.122;14.468;2022-10-26T10:52:33;98713.10646320782;;;15.552376592660409;72.2692454413672
71642;BME280;60657;50.122;14.468;2022-10-26T10:55:36;98708.04175904927;;;15.552376592660409;71.87632562752728
71642;BME280;60657;50.122;14.468;2022-10-26T10:58:43;98713.01962691476;;;15.579079880979627;71.98504615854124
71642;BME280;60657;50.122;14.468;2022-10-26T11:01:59;98707.29869643085;;;15.474937056534678;72.19485770962082
71642;BME280;60657;50.122;14.468;2022-10-26T11:05:28;98680.66579469004;;;15.442893110551616;72.95590142671854
71642;BME280;60657;50.122;14.468;2022-10-26T11:08:41;98669.73054021916;;;15.33875028610666;73.25154497596704
71642;BME280;60657;50.122;14.468;2022-10-26T11:11:51;98673.85550535319;;;15.336079957274741;73.51476310368506
71642;BME280;60657;50.122;14.468;2022-10-26T11:14:58;98680.4909047659;;;15.37880521858549;74.10414282444495